createdAt,value
2016-12-21T00:00:29.777Z,19.11
2016-12-21T00:01:39.726Z,19.05
2016-12-21T00:02:49.681Z,19.04
2016-12-21T00:03:59.637Z,19.04
2016-12-21T00:05:09.902Z,19.15
2016-12-21T00:06:19.867Z,19.11
2016-12-21T00:07:30.140Z,19.2
2016-12-21T00:08:40.399Z,19.08
2016-12-21T00:09:50.380Z,19.08
2016-12-21T00:11:00.655Z,19.07
2016-12-21T00:12:10.930Z,19.07
2016-12-21T00:13:21.195Z,19.05
2016-12-21T00:14:31.461Z,19.04
2016-12-21T00:15:41.718Z,19.09
2016-12-21T00:16:52.002Z,19.04
2016-12-21T00:18:02.252Z,19.01
2016-12-21T00:19:12.515Z,19.11
2016-12-21T00:20:22.466Z,19.17
2016-12-21T00:21:32.723Z,19.07
2016-12-21T00:22:42.998Z,19.07
2016-12-21T00:23:52.652Z,19.17
2016-12-21T00:25:02.624Z,19.05
2016-12-21T00:26:12.578Z,19.05
2016-12-21T00:27:22.531Z,19.12
2016-12-21T00:28:32.790Z,19.05
2016-12-21T00:29:42.751Z,19.05
2016-12-21T00:30:52.700Z,19.05
2016-12-21T00:32:02.982Z,19.08
2016-12-21T00:33:12.957Z,19.07
2016-12-21T00:34:23.216Z,19.04
2016-12-21T00:35:33.497Z,19.01
2016-12-21T00:36:43.762Z,19.09
2016-12-21T00:37:54.030Z,19.07
2016-12-21T00:39:03.981Z,19.11
2016-12-21T00:40:14.266Z,19.08
2016-12-21T00:41:24.586Z,19.04
2016-12-21T00:42:34.547Z,19.08
2016-12-21T00:43:44.814Z,19.16
2016-12-21T00:44:55.088Z,19.11
2016-12-21T00:46:04.739Z,19.07
2016-12-21T00:47:15.018Z,19.05
2016-12-21T00:48:24.980Z,19.07
2016-12-21T00:49:34.942Z,19.01
2016-12-21T00:50:44.887Z,19.07
2016-12-21T00:51:54.839Z,19.11
2016-12-21T00:53:04.783Z,19.05
2016-12-21T00:54:15.054Z,19.04
2016-12-21T00:55:25.009Z,19.11
2016-12-21T00:56:34.992Z,19.08
2016-12-21T00:57:44.634Z,19.05
2016-12-21T00:58:54.289Z,19.01
2016-12-21T01:00:03.662Z,19.08
2016-12-21T01:01:13.617Z,19.07
2016-12-21T01:02:22.967Z,19.04
2016-12-21T01:03:33.226Z,19.15
2016-12-21T01:04:43.174Z,19.07
2016-12-21T01:05:52.825Z,19.16
2016-12-21T01:07:02.777Z,19.05
2016-12-21T01:08:12.425Z,19.09
2016-12-21T01:09:22.704Z,19.05
2016-12-21T01:10:32.662Z,19.05
2016-12-21T01:11:42.633Z,19.07
2016-12-21T01:12:52.889Z,19.11
2016-12-21T01:14:02.531Z,19.09
2016-12-21T01:15:12.486Z,19.07
2016-12-21T01:16:22.437Z,19.01
2016-12-21T01:17:32.704Z,19.08
2016-12-21T01:18:43.068Z,19.07
2016-12-21T01:19:53.022Z,19.07
2016-12-21T01:21:02.973Z,19.08
2016-12-21T01:22:13.237Z,19.07
2016-12-21T01:23:23.493Z,19.11
2016-12-21T01:24:33.758Z,19.11
2016-12-21T01:25:44.917Z,19.12
2016-12-21T01:26:54.875Z,19.07
2016-12-21T01:28:05.150Z,19.11
2016-12-21T01:29:15.086Z,19.07
2016-12-21T01:30:25.345Z,19.07
2016-12-21T01:31:35.630Z,19.08
2016-12-21T01:32:45.611Z,19.07
2016-12-21T01:33:55.882Z,19.07
2016-12-21T01:35:05.828Z,19.08
2016-12-21T01:36:16.091Z,19.07
2016-12-21T01:37:26.148Z,19.09
2016-12-21T01:38:36.135Z,19.05
2016-12-21T01:39:45.780Z,19.05
2016-12-21T01:40:55.727Z,19.08
2016-12-21T01:42:05.982Z,19.07
2016-12-21T01:43:16.243Z,19.05
2016-12-21T01:44:26.500Z,19.09
2016-12-21T01:45:36.759Z,19.07
2016-12-21T01:46:45.783Z,19.08
2016-12-21T01:47:55.741Z,19.09
2016-12-21T01:49:06.010Z,19.11
2016-12-21T01:50:16.282Z,19.07
2016-12-21T01:51:26.538Z,19.12
2016-12-21T01:52:36.794Z,19.05
2016-12-21T01:53:47.056Z,19.05
2016-12-21T01:54:56.742Z,19.05
2016-12-21T01:56:06.394Z,19.05
2016-12-21T01:57:16.678Z,19.08
2016-12-21T01:58:26.007Z,19.04
2016-12-21T01:59:36.285Z,19.08
2016-12-21T02:00:46.534Z,19.05
2016-12-21T02:01:56.493Z,19.05
2016-12-21T02:03:06.138Z,19.08
2016-12-21T02:04:16.086Z,19.05
2016-12-21T02:05:25.734Z,19.08
2016-12-21T02:06:35.990Z,19.04
2016-12-21T02:07:45.977Z,19.08
2016-12-21T02:08:56.233Z,19.11
2016-12-21T02:10:06.505Z,19.07
2016-12-21T02:11:16.761Z,19.08
2016-12-21T02:12:26.086Z,19.11
2016-12-21T02:13:36.339Z,19.08
2016-12-21T02:14:46.601Z,19.05
2016-12-21T02:15:56.876Z,19.07
2016-12-21T02:17:07.137Z,19.09
2016-12-21T02:18:17.403Z,19.04
2016-12-21T02:19:27.356Z,19.04
2016-12-21T02:20:37.618Z,19.05
2016-12-21T02:21:47.885Z,19.09
2016-12-21T02:22:58.306Z,19.07
2016-12-21T02:24:08.558Z,19.08
2016-12-21T02:25:18.827Z,19.11
2016-12-21T02:26:29.096Z,19.09
2016-12-21T02:27:39.361Z,19.11
2016-12-21T02:28:49.307Z,19.05
2016-12-21T02:29:59.295Z,19.08
2016-12-21T02:31:09.552Z,19.11
2016-12-21T02:32:20.219Z,19.07
2016-12-21T02:33:30.481Z,19.07
2016-12-21T02:34:40.431Z,19.07
2016-12-21T02:35:50.382Z,19.15
2016-12-21T02:37:00.645Z,19.08
2016-12-21T02:38:10.311Z,19
2016-12-21T02:39:20.260Z,19.05
2016-12-21T02:40:30.529Z,19.05
2016-12-21T02:41:40.478Z,19.12
2016-12-21T02:42:50.737Z,19.07
2016-12-21T02:44:01.006Z,19.05
2016-12-21T02:45:10.964Z,19.09
2016-12-21T02:46:21.232Z,19
2016-12-21T02:47:31.188Z,19.04
2016-12-21T02:48:41.453Z,19.01
2016-12-21T02:49:51.705Z,19.08
2016-12-21T02:51:01.955Z,19.07
2016-12-21T02:52:11.914Z,19.07
2016-12-21T02:53:22.189Z,19.08
2016-12-21T02:54:32.457Z,19.05
2016-12-21T02:55:42.729Z,19.11
2016-12-21T02:56:52.681Z,19.07
2016-12-21T02:58:02.636Z,19.09
2016-12-21T02:59:12.595Z,19.05
2016-12-21T03:00:22.857Z,19.09
2016-12-21T03:01:32.492Z,18.97
2016-12-21T03:02:42.450Z,19.01
2016-12-21T03:03:52.399Z,19.05
2016-12-21T03:05:02.053Z,19.04
2016-12-21T03:06:12.322Z,18.97
2016-12-21T03:07:22.277Z,19.04
2016-12-21T03:08:32.263Z,19.01
2016-12-21T03:09:42.235Z,18.96
2016-12-21T03:10:52.197Z,18.96
2016-12-21T03:12:01.844Z,18.97
2016-12-21T03:13:11.799Z,19
2016-12-21T03:14:21.742Z,19.04
2016-12-21T03:15:31.997Z,19.05
2016-12-21T03:16:41.948Z,19.08
2016-12-21T03:17:51.891Z,19.01
2016-12-21T03:19:02.141Z,19.01
2016-12-21T03:20:12.095Z,18.97
2016-12-21T03:21:22.360Z,18.98
2016-12-21T03:22:32.327Z,19
2016-12-21T03:23:42.294Z,18.97
2016-12-21T03:24:52.241Z,18.97
2016-12-21T03:26:02.502Z,19
2016-12-21T03:27:12.757Z,19.01
2016-12-21T03:28:23.035Z,18.98
2016-12-21T03:29:33.298Z,19.04
2016-12-21T03:30:43.562Z,18.98
2016-12-21T03:31:53.518Z,19
2016-12-21T03:33:03.784Z,18.98
2016-12-21T03:34:14.033Z,19.05
2016-12-21T03:35:24.005Z,18.98
2016-12-21T03:36:33.951Z,19.05
2016-12-21T03:37:43.588Z,19.08
2016-12-21T03:38:53.537Z,18.98
2016-12-21T03:40:03.786Z,18.97
2016-12-21T03:41:13.744Z,18.97
2016-12-21T03:42:24.003Z,18.96
2016-12-21T03:43:33.334Z,18.96
2016-12-21T03:44:43.011Z,19.04
2016-12-21T03:45:52.656Z,19.04
2016-12-21T03:47:02.947Z,19.04
2016-12-21T03:48:12.588Z,19.01
2016-12-21T03:49:22.857Z,19.04
2016-12-21T03:50:32.841Z,19
2016-12-21T03:51:42.795Z,19.01
2016-12-21T03:52:53.068Z,18.98
2016-12-21T03:54:03.337Z,18.97
2016-12-21T03:55:13.292Z,18.96
2016-12-21T03:56:22.927Z,19
2016-12-21T03:57:32.876Z,19.05
2016-12-21T03:58:42.827Z,19.01
2016-12-21T03:59:52.793Z,18.98
2016-12-21T04:01:02.742Z,19.04
2016-12-21T04:02:13.003Z,18.98
2016-12-21T04:03:23.264Z,19.05
2016-12-21T04:04:33.535Z,19.01
2016-12-21T04:05:43.801Z,18.97
2016-12-21T04:06:54.067Z,18.91
2016-12-21T04:08:04.009Z,19.04
2016-12-21T04:09:13.964Z,19.01
2016-12-21T04:10:23.609Z,18.97
2016-12-21T04:11:33.564Z,18.92
2016-12-21T04:12:43.507Z,19
2016-12-21T04:13:53.471Z,18.98
2016-12-21T04:15:03.726Z,18.98
2016-12-21T04:16:13.983Z,18.92
2016-12-21T04:17:23.942Z,18.98
2016-12-21T04:18:33.913Z,18.88
2016-12-21T04:19:44.176Z,18.94
2016-12-21T04:20:54.425Z,19.01
2016-12-21T04:22:04.409Z,19.05
2016-12-21T04:23:14.662Z,18.98
2016-12-21T04:24:24.908Z,19.04
2016-12-21T04:25:35.151Z,18.97
2016-12-21T04:26:45.087Z,18.89
2016-12-21T04:27:55.366Z,19
2016-12-21T04:29:05.625Z,19
2016-12-21T04:30:15.887Z,18.98
2016-12-21T04:31:25.840Z,18.96
2016-12-21T04:32:35.520Z,18.94
2016-12-21T04:33:45.782Z,18.96
2016-12-21T04:34:55.721Z,19
2016-12-21T04:36:05.989Z,18.97
2016-12-21T04:37:15.939Z,19.04
2016-12-21T04:38:25.888Z,18.92
2016-12-21T04:39:36.146Z,18.96
2016-12-21T04:40:46.403Z,18.96
2016-12-21T04:41:56.368Z,18.98
2016-12-21T04:43:06.006Z,18.92
2016-12-21T04:44:16.272Z,18.92
2016-12-21T04:45:26.543Z,18.88
2016-12-21T04:46:36.672Z,18.94
2016-12-21T04:47:46.311Z,18.96
2016-12-21T04:48:56.265Z,18.91
2016-12-21T04:50:06.531Z,18.92
2016-12-21T04:51:16.787Z,18.97
2016-12-21T04:52:27.051Z,18.94
2016-12-21T04:53:37.314Z,18.94
2016-12-21T04:54:47.578Z,18.94
2016-12-21T04:55:57.840Z,18.91
2016-12-21T04:57:08.091Z,18.91
2016-12-21T04:58:18.038Z,18.91
2016-12-21T04:59:28.025Z,18.91
2016-12-21T05:00:38.278Z,18.97
2016-12-21T05:01:48.533Z,18.96
2016-12-21T05:02:58.172Z,18.91
2016-12-21T05:04:08.133Z,18.96
2016-12-21T05:05:18.390Z,18.94
2016-12-21T05:06:28.646Z,18.91
2016-12-21T05:07:38.284Z,18.91
2016-12-21T05:08:47.926Z,18.91
2016-12-21T05:09:57.894Z,18.91
2016-12-21T05:11:07.554Z,18.91
2016-12-21T05:12:17.865Z,18.94
2016-12-21T05:13:27.804Z,18.91
2016-12-21T05:14:38.104Z,18.91
2016-12-21T05:15:48.361Z,18.91
2016-12-21T05:16:58.311Z,18.92
2016-12-21T05:18:08.620Z,18.94
2016-12-21T05:19:18.559Z,18.91
2016-12-21T05:20:28.505Z,18.86
2016-12-21T05:21:38.878Z,18.82
2016-12-21T05:22:49.170Z,18.89
2016-12-21T05:23:59.443Z,18.89
2016-12-21T05:25:09.718Z,18.89
2016-12-21T05:26:20.020Z,18.89
2016-12-21T05:27:29.682Z,18.88
2016-12-21T05:28:39.645Z,18.92
2016-12-21T05:29:49.612Z,18.92
2016-12-21T05:30:59.561Z,18.86
2016-12-21T05:32:09.213Z,18.88
2016-12-21T05:33:18.867Z,18.96
2016-12-21T05:34:28.815Z,18.92
2016-12-21T05:35:38.784Z,18.88
2016-12-21T05:36:48.745Z,18.98
2016-12-21T05:37:58.713Z,18.94
2016-12-21T05:39:08.348Z,18.96
2016-12-21T05:40:18.621Z,18.89
2016-12-21T05:41:28.886Z,18.89
2016-12-21T05:42:39.136Z,18.94
2016-12-21T05:43:48.783Z,18.85
2016-12-21T05:44:58.419Z,18.92
2016-12-21T05:46:08.403Z,18.86
2016-12-21T05:47:18.357Z,18.89
2016-12-21T05:48:28.518Z,18.85
2016-12-21T05:49:38.810Z,18.92
2016-12-21T05:50:48.813Z,18.88
2016-12-21T05:51:59.088Z,18.83
2016-12-21T05:53:09.058Z,18.85
2016-12-21T05:54:19.417Z,18.88
2016-12-21T05:55:29.366Z,18.85
2016-12-21T05:56:39.652Z,18.89
2016-12-21T05:57:49.949Z,18.85
2016-12-21T05:59:00.204Z,18.91
2016-12-21T06:00:10.214Z,18.89
2016-12-21T06:01:20.483Z,18.82
2016-12-21T06:02:30.477Z,18.86
2016-12-21T06:03:40.736Z,18.91
2016-12-21T06:04:51.011Z,18.91
2016-12-21T06:06:00.377Z,18.89
2016-12-21T06:07:10.333Z,18.88
2016-12-21T06:08:19.981Z,18.85
2016-12-21T06:09:29.936Z,18.82
2016-12-21T06:10:40.198Z,18.88
2016-12-21T06:11:50.149Z,18.86
2016-12-21T06:13:00.406Z,18.86
2016-12-21T06:14:10.041Z,18.86
2016-12-21T06:15:19.993Z,18.89
2016-12-21T06:16:29.942Z,18.91
2016-12-21T06:17:40.229Z,18.94
2016-12-21T06:18:50.495Z,18.92
2016-12-21T06:20:00.187Z,18.91
2016-12-21T06:21:10.453Z,18.88
2016-12-21T06:22:20.410Z,18.81
2016-12-21T06:23:30.689Z,18.85
2016-12-21T06:24:40.647Z,18.86
2016-12-21T06:25:50.612Z,18.83
2016-12-21T06:27:00.570Z,18.92
2016-12-21T06:28:10.515Z,18.86
2016-12-21T06:29:20.156Z,18.83
2016-12-21T06:30:30.112Z,18.86
2016-12-21T06:31:40.064Z,18.88
2016-12-21T06:32:50.339Z,18.88
2016-12-21T06:34:00.288Z,18.91
2016-12-21T06:35:10.544Z,18.83
2016-12-21T06:36:20.823Z,18.88
2016-12-21T06:37:30.167Z,18.86
2016-12-21T06:38:40.115Z,18.83
2016-12-21T06:39:50.067Z,18.88
2016-12-21T06:41:00.016Z,18.88
2016-12-21T06:42:09.984Z,18.85
2016-12-21T06:43:20.243Z,18.88
2016-12-21T06:44:30.771Z,18.88
2016-12-21T06:45:40.410Z,18.92
2016-12-21T06:46:50.668Z,18.82
2016-12-21T06:48:00.323Z,18.91
2016-12-21T06:49:10.303Z,18.83
2016-12-21T06:50:20.272Z,18.82
2016-12-21T06:51:30.646Z,18.83
2016-12-21T06:52:40.646Z,18.88
2016-12-21T06:53:50.899Z,18.88
2016-12-21T06:55:00.557Z,18.86
2016-12-21T06:56:09.894Z,18.85
2016-12-21T06:57:20.153Z,18.86
2016-12-21T06:58:30.423Z,18.96
2016-12-21T06:59:40.476Z,18.92
2016-12-21T07:00:50.733Z,18.85
2016-12-21T07:02:00.703Z,18.85
2016-12-21T07:03:10.969Z,18.83
2016-12-21T07:04:20.925Z,18.89
2016-12-21T07:05:31.183Z,18.88
2016-12-21T07:06:40.514Z,18.91
2016-12-21T07:07:50.166Z,18.96
2016-12-21T07:09:00.454Z,18.86
2016-12-21T07:10:10.105Z,18.86
2016-12-21T07:11:20.118Z,18.94
2016-12-21T07:12:30.412Z,18.94
2016-12-21T07:13:40.700Z,18.97
2016-12-21T07:14:50.662Z,18.97
2016-12-21T07:16:00.623Z,18.94
2016-12-21T07:17:10.582Z,18.86
2016-12-21T07:18:20.546Z,18.88
2016-12-21T07:19:30.206Z,18.89
2016-12-21T07:20:40.159Z,18.85
2016-12-21T07:21:50.120Z,18.97
2016-12-21T07:23:00.376Z,18.88
2016-12-21T07:24:10.331Z,18.85
2016-12-21T07:25:20.607Z,18.91
2016-12-21T07:26:30.565Z,18.82
2016-12-21T07:27:40.819Z,18.91
2016-12-21T07:28:51.124Z,18.85
2016-12-21T07:30:01.112Z,18.85
2016-12-21T07:31:11.388Z,18.85
2016-12-21T07:32:21.774Z,18.88
2016-12-21T07:33:31.736Z,18.88
2016-12-21T07:34:41.102Z,18.88
2016-12-21T07:35:50.760Z,18.83
2016-12-21T07:37:00.420Z,18.89
2016-12-21T07:38:10.673Z,18.92
2016-12-21T07:39:20.942Z,18.91
2016-12-21T07:40:31.219Z,18.89
2016-12-21T07:41:41.185Z,18.89
2016-12-21T07:42:51.495Z,18.89
2016-12-21T07:44:01.450Z,18.91
2016-12-21T07:45:11.723Z,18.96
2016-12-21T07:46:21.387Z,19.09
2016-12-21T07:47:31.051Z,19.08
2016-12-21T07:48:41.067Z,19.19
2016-12-21T07:49:50.737Z,19.26
2016-12-21T07:51:01.052Z,19.27
2016-12-21T07:52:11.359Z,19.23
2016-12-21T07:53:21.333Z,19.3
2016-12-21T07:54:31.790Z,19.35
2016-12-21T07:55:41.449Z,19.37
2016-12-21T07:56:51.419Z,19.39
2016-12-21T07:58:01.780Z,19.47
2016-12-21T07:59:11.710Z,19.45
2016-12-21T08:00:21.704Z,19.42
2016-12-21T08:01:31.713Z,19.47
2016-12-21T08:02:41.403Z,19.48
2016-12-21T08:03:51.697Z,19.48
2016-12-21T08:05:01.371Z,19.48
2016-12-21T08:06:11.369Z,19.38
2016-12-21T08:07:21.640Z,19.41
2016-12-21T08:08:31.391Z,19.34
2016-12-21T08:09:41.910Z,19.39
2016-12-21T08:10:52.143Z,19.39
2016-12-21T08:12:02.424Z,19.29
2016-12-21T08:13:12.088Z,19.32
2016-12-21T08:14:21.450Z,19.32
2016-12-21T08:15:31.756Z,19.34
2016-12-21T08:16:42.026Z,19.29
2016-12-21T08:17:52.050Z,19.3
2016-12-21T08:19:02.020Z,19.27
2016-12-21T08:20:11.707Z,19.29
2016-12-21T08:21:21.996Z,19.38
2016-12-21T08:22:32.274Z,19.26
2016-12-21T08:23:42.243Z,19.27
2016-12-21T08:24:51.926Z,19.24
2016-12-21T08:26:01.913Z,19.27
2016-12-21T08:27:12.211Z,19.32
2016-12-21T08:28:22.204Z,19.24
2016-12-21T08:29:32.506Z,19.23
2016-12-21T08:30:42.470Z,19.24
2016-12-21T08:31:51.821Z,19.27
2016-12-21T08:33:01.479Z,19.22
2016-12-21T08:34:10.853Z,19.32
2016-12-21T08:35:21.122Z,19.23
2016-12-21T08:36:31.708Z,19.22
2016-12-21T08:37:41.673Z,19.26
2016-12-21T08:38:51.647Z,19.29
2016-12-21T08:40:01.960Z,19.22
2016-12-21T08:41:11.928Z,19.24
2016-12-21T08:42:21.940Z,19.27
2016-12-21T08:43:31.912Z,19.2
2016-12-21T08:44:42.248Z,19.23
2016-12-21T08:45:52.235Z,19.23
2016-12-21T08:47:01.581Z,19.24
2016-12-21T08:48:11.889Z,19.2
2016-12-21T08:49:22.215Z,19.3
2016-12-21T08:50:32.491Z,19.27
2016-12-21T08:51:42.772Z,19.29
2016-12-21T08:52:52.742Z,19.23
2016-12-21T08:54:02.708Z,19.27
2016-12-21T08:55:12.660Z,19.23
2016-12-21T08:56:22.633Z,19.27
2016-12-21T08:57:32.605Z,19.2
2016-12-21T08:58:42.624Z,19.3
2016-12-21T08:59:52.623Z,19.29
2016-12-21T09:01:02.987Z,19.3
2016-12-21T09:02:13.326Z,19.26
2016-12-21T09:03:23.792Z,19.22
2016-12-21T09:04:33.465Z,19.23
2016-12-21T09:05:43.167Z,19.29
2016-12-21T09:06:52.819Z,19.26
2016-12-21T09:08:03.106Z,19.29
2016-12-21T09:09:13.145Z,19.29
2016-12-21T09:10:23.125Z,19.35
2016-12-21T09:11:33.128Z,19.29
2016-12-21T09:12:42.792Z,19.32
2016-12-21T09:13:52.755Z,19.24
2016-12-21T09:15:02.739Z,19.29
2016-12-21T09:16:12.713Z,19.29
2016-12-21T09:17:23.022Z,19.35
2016-12-21T09:18:32.397Z,19.39
2016-12-21T09:19:42.747Z,19.41
2016-12-21T09:20:52.731Z,19.6
2016-12-21T09:22:02.698Z,19.57
2016-12-21T09:23:12.679Z,19.53
2016-12-21T09:24:22.943Z,19.66
2016-12-21T09:25:32.939Z,19.66
2016-12-21T09:26:42.913Z,19.66
2016-12-21T09:27:52.980Z,19.74
2016-12-21T09:29:02.961Z,19.78
2016-12-21T09:30:12.931Z,19.77
2016-12-21T09:31:23.231Z,19.75
2016-12-21T09:32:33.525Z,19.72
2016-12-21T09:33:43.514Z,19.67
2016-12-21T09:34:53.814Z,19.62
2016-12-21T09:36:04.096Z,19.56
2016-12-21T09:37:14.086Z,19.64
2016-12-21T09:38:24.365Z,19.56
2016-12-21T09:39:33.697Z,19.64
2016-12-21T09:40:44.063Z,19.55
2016-12-21T09:41:53.743Z,19.55
2016-12-21T09:43:04.028Z,19.53
2016-12-21T09:44:13.983Z,19.57
2016-12-21T09:45:23.641Z,19.48
2016-12-21T09:46:33.617Z,19.52
2016-12-21T09:47:43.900Z,19.44
2016-12-21T09:48:53.882Z,19.62
2016-12-21T09:50:04.164Z,19.44
2016-12-21T09:51:14.138Z,19.52
2016-12-21T09:52:24.435Z,19.41
2016-12-21T09:53:34.400Z,19.48
2016-12-21T09:54:44.368Z,19.49
2016-12-21T09:55:54.664Z,19.47
2016-12-21T09:57:04.963Z,19.52
2016-12-21T09:58:15.259Z,19.41
2016-12-21T09:59:25.246Z,19.53
2016-12-21T10:00:35.222Z,19.55
2016-12-21T10:01:45.505Z,19.57
2016-12-21T10:02:55.847Z,19.56
2016-12-21T10:04:06.154Z,19.57
2016-12-21T10:05:15.809Z,19.53
2016-12-21T10:06:26.085Z,19.53
2016-12-21T10:07:35.749Z,19.55
2016-12-21T10:08:46.036Z,19.57
2016-12-21T10:09:56.310Z,19.56
2016-12-21T10:11:05.960Z,19.48
2016-12-21T10:12:16.233Z,19.57
2016-12-21T10:13:26.232Z,19.53
2016-12-21T10:14:36.511Z,19.53
2016-12-21T10:15:46.776Z,19.56
2016-12-21T10:16:56.734Z,19.57
2016-12-21T10:18:07.004Z,19.59
2016-12-21T10:19:16.962Z,19.49
2016-12-21T10:20:26.926Z,19.59
2016-12-21T10:21:36.888Z,19.55
2016-12-21T10:22:46.251Z,19.53
2016-12-21T10:23:56.563Z,19.59
2016-12-21T10:25:06.847Z,19.59
2016-12-21T10:26:17.129Z,19.55
2016-12-21T10:27:27.404Z,19.59
2016-12-21T10:28:37.357Z,19.55
2016-12-21T10:29:47.639Z,19.64
2016-12-21T10:30:57.933Z,19.53
2016-12-21T10:32:08.240Z,19.57
2016-12-21T10:33:18.548Z,19.56
2016-12-21T10:34:28.209Z,19.52
2016-12-21T10:35:38.586Z,19.53
2016-12-21T10:36:48.559Z,19.48
2016-12-21T10:37:58.200Z,19.55
2016-12-21T10:39:08.162Z,19.55
2016-12-21T10:40:18.142Z,19.55
2016-12-21T10:41:27.822Z,19.48
2016-12-21T10:42:38.094Z,19.44
2016-12-21T10:43:48.366Z,19.55
2016-12-21T10:44:58.654Z,19.53
2016-12-21T10:46:08.924Z,19.57
2016-12-21T10:47:18.933Z,19.59
2016-12-21T10:48:29.054Z,19.56
2016-12-21T10:49:39.308Z,19.52
2016-12-21T10:50:49.590Z,19.55
2016-12-21T10:51:59.568Z,19.48
2016-12-21T10:53:09.524Z,19.52
2016-12-21T10:54:19.798Z,19.53
2016-12-21T10:55:29.772Z,19.59
2016-12-21T10:56:39.737Z,19.56
2016-12-21T10:57:50.024Z,19.59
2016-12-21T10:59:00.300Z,19.52
2016-12-21T11:00:10.260Z,19.55
2016-12-21T11:01:20.521Z,19.53
2016-12-21T11:02:30.795Z,19.56
2016-12-21T11:03:40.786Z,19.56
2016-12-21T11:04:50.792Z,19.55
2016-12-21T11:06:00.463Z,19.53
2016-12-21T11:07:10.450Z,19.57
2016-12-21T11:08:20.764Z,19.56
2016-12-21T11:09:30.437Z,19.52
2016-12-21T11:10:40.101Z,19.53
2016-12-21T11:11:50.066Z,19.57
2016-12-21T11:13:00.320Z,19.52
2016-12-21T11:14:10.287Z,19.47
2016-12-21T11:15:19.926Z,19.52
2016-12-21T11:16:30.213Z,19.6
2016-12-21T11:17:40.488Z,19.57
2016-12-21T11:18:50.778Z,19.57
2016-12-21T11:20:01.044Z,19.59
2016-12-21T11:21:11.319Z,19.56
2016-12-21T11:22:21.594Z,19.52
2016-12-21T11:23:30.932Z,19.6
2016-12-21T11:24:41.202Z,19.62
2016-12-21T11:25:51.170Z,19.6
2016-12-21T11:27:01.113Z,19.6
2016-12-21T11:28:10.751Z,19.57
2016-12-21T11:29:21.067Z,19.59
2016-12-21T11:30:31.384Z,19.63
2016-12-21T11:31:41.404Z,19.66
2016-12-21T11:32:51.064Z,19.59
2016-12-21T11:34:00.725Z,19.64
2016-12-21T11:35:11.027Z,19.66
2016-12-21T11:36:21.292Z,19.67
2016-12-21T11:37:30.342Z,19.63
2016-12-21T11:38:39.987Z,19.64
2016-12-21T11:39:50.272Z,19.63
2016-12-21T11:41:00.441Z,19.7
2016-12-21T11:42:10.755Z,19.67
2016-12-21T11:43:21.040Z,19.67
2016-12-21T11:44:30.701Z,19.67
2016-12-21T11:45:40.673Z,19.7
2016-12-21T11:46:50.655Z,19.67
2016-12-21T11:48:00.938Z,19.71
2016-12-21T11:49:10.926Z,19.67
2016-12-21T11:50:21.204Z,19.75
2016-12-21T11:51:31.161Z,19.67
2016-12-21T11:52:41.448Z,19.67
2016-12-21T11:53:51.768Z,19.7
2016-12-21T11:55:01.790Z,19.72
2016-12-21T11:56:11.486Z,19.71
2016-12-21T11:57:21.147Z,19.72
2016-12-21T11:58:31.426Z,19.67
2016-12-21T11:59:41.720Z,19.7
2016-12-21T12:00:52.008Z,19.72
2016-12-21T12:02:02.309Z,19.66
2016-12-21T12:03:12.271Z,19.66
2016-12-21T12:04:22.543Z,19.72
2016-12-21T12:05:33.026Z,19.71
2016-12-21T12:06:43.301Z,19.66
2016-12-21T12:07:53.295Z,19.72
2016-12-21T12:09:02.630Z,19.64
2016-12-21T12:10:12.600Z,19.72
2016-12-21T12:11:22.865Z,19.75
2016-12-21T12:12:32.829Z,19.66
2016-12-21T12:13:42.490Z,19.64
2016-12-21T12:14:52.471Z,19.78
2016-12-21T12:16:02.736Z,19.72
2016-12-21T12:17:13.007Z,19.77
2016-12-21T12:18:22.658Z,19.84
2016-12-21T12:19:32.964Z,19.77
2016-12-21T12:20:42.938Z,19.81
2016-12-21T12:21:52.924Z,19.7
2016-12-21T12:23:02.905Z,19.72
2016-12-21T12:24:12.900Z,19.74
2016-12-21T12:25:22.872Z,19.74
2016-12-21T12:26:33.150Z,19.77
2016-12-21T12:27:43.457Z,19.71
2016-12-21T12:28:53.413Z,19.79
2016-12-21T12:30:03.374Z,19.71
2016-12-21T12:31:13.374Z,19.78
2016-12-21T12:32:23.384Z,19.81
2016-12-21T12:33:33.656Z,19.72
2016-12-21T12:34:43.666Z,19.84
2016-12-21T12:35:53.323Z,19.79
2016-12-21T12:37:03.291Z,19.75
2016-12-21T12:38:13.558Z,19.79
2016-12-21T12:39:23.221Z,19.72
2016-12-21T12:40:33.497Z,19.74
2016-12-21T12:41:43.782Z,19.78
2016-12-21T12:42:53.468Z,19.74
2016-12-21T12:44:03.766Z,19.84
2016-12-21T12:45:13.763Z,19.78
2016-12-21T12:46:23.769Z,19.72
2016-12-21T12:47:33.744Z,19.72
2016-12-21T12:48:43.429Z,19.77
2016-12-21T12:49:53.401Z,19.79
2016-12-21T12:51:03.395Z,19.82
2016-12-21T12:52:13.362Z,19.79
2016-12-21T12:53:23.663Z,19.81
2016-12-21T12:54:33.961Z,19.84
2016-12-21T12:55:43.942Z,19.75
2016-12-21T12:56:54.243Z,19.81
2016-12-21T12:58:04.253Z,19.84
2016-12-21T12:59:13.602Z,19.82
2016-12-21T13:00:23.584Z,19.66
2016-12-21T13:01:33.869Z,19.81
2016-12-21T13:02:43.847Z,19.74
2016-12-21T13:03:54.185Z,19.79
2016-12-21T13:05:04.164Z,19.74
2016-12-21T13:06:14.135Z,19.84
2016-12-21T13:07:24.420Z,19.82
2016-12-21T13:08:34.087Z,19.81
2016-12-21T13:09:44.378Z,19.79
2016-12-21T13:10:54.650Z,19.78
2016-12-21T13:12:04.634Z,19.82
2016-12-21T13:13:14.600Z,19.82
2016-12-21T13:14:24.290Z,19.77
2016-12-21T13:15:33.935Z,19.82
2016-12-21T13:16:44.212Z,19.87
2016-12-21T13:17:54.175Z,19.81
2016-12-21T13:19:04.149Z,19.84
2016-12-21T13:20:14.429Z,19.77
2016-12-21T13:21:24.415Z,19.77
2016-12-21T13:22:34.728Z,19.82
2016-12-21T13:23:45.019Z,19.85
2016-12-21T13:24:55.006Z,19.87
2016-12-21T13:26:04.993Z,19.81
2016-12-21T13:27:14.395Z,19.85
2016-12-21T13:28:24.361Z,19.78
2016-12-21T13:29:34.644Z,19.81
2016-12-21T13:30:44.933Z,19.78
2016-12-21T13:31:54.610Z,19.82
2016-12-21T13:33:04.886Z,19.74
2016-12-21T13:34:14.549Z,19.81
2016-12-21T13:35:24.511Z,19.84
2016-12-21T13:36:34.165Z,19.77
2016-12-21T13:37:44.446Z,19.79
2016-12-21T13:38:54.734Z,19.82
2016-12-21T13:40:04.366Z,19.82
2016-12-21T13:41:14.660Z,19.82
2016-12-21T13:42:24.020Z,19.75
2016-12-21T13:43:34.030Z,19.79
2016-12-21T13:44:44.298Z,19.84
2016-12-21T13:45:54.594Z,19.77
2016-12-21T13:47:04.939Z,19.84
2016-12-21T13:48:14.927Z,19.84
2016-12-21T13:49:24.584Z,19.81
2016-12-21T13:50:34.270Z,19.81
2016-12-21T13:51:44.554Z,19.84
2016-12-21T13:52:54.868Z,19.75
2016-12-21T13:54:05.085Z,19.78
2016-12-21T13:55:14.452Z,19.85
2016-12-21T13:56:24.429Z,19.75
2016-12-21T13:57:34.106Z,19.84
2016-12-21T13:58:44.390Z,19.85
2016-12-21T13:59:54.365Z,19.85
2016-12-21T14:01:04.714Z,19.85
2016-12-21T14:02:15.034Z,19.75
2016-12-21T14:03:25.023Z,19.82
2016-12-21T14:04:34.691Z,19.79
2016-12-21T14:05:44.671Z,19.79
2016-12-21T14:06:55.004Z,19.81
2016-12-21T14:08:04.978Z,19.79
2016-12-21T14:09:15.240Z,19.84
2016-12-21T14:10:25.212Z,19.79
2016-12-21T14:11:35.518Z,19.84
2016-12-21T14:12:45.521Z,19.82
2016-12-21T14:13:55.501Z,19.82
2016-12-21T14:15:05.793Z,19.75
2016-12-21T14:16:15.760Z,19.84
2016-12-21T14:17:26.097Z,19.79
2016-12-21T14:18:36.382Z,19.82
2016-12-21T14:21:45.857Z,19.77
2016-12-21T14:22:55.872Z,19.85
2016-12-21T14:24:06.144Z,19.66
2016-12-21T14:25:16.436Z,19.77
2016-12-21T14:26:26.727Z,19.63
2016-12-21T14:27:37.033Z,19.66
2016-12-21T14:28:47.311Z,19.57
2016-12-21T14:29:56.970Z,19.53
2016-12-21T14:31:07.257Z,19.57
2016-12-21T14:32:17.235Z,19.53
2016-12-21T14:33:26.940Z,19.52
2016-12-21T14:34:36.912Z,19.53
2016-12-21T14:35:46.890Z,19.56
2016-12-21T14:36:56.874Z,19.44
2016-12-21T14:38:07.164Z,19.45
2016-12-21T14:39:17.143Z,19.42
2016-12-21T14:40:27.120Z,19.45
2016-12-21T14:41:37.094Z,19.45
2016-12-21T14:42:47.084Z,19.48
2016-12-21T14:43:57.061Z,19.42
2016-12-21T14:45:07.356Z,19.48
2016-12-21T14:46:17.660Z,19.47
2016-12-21T14:47:27.661Z,19.49
2016-12-21T14:48:37.980Z,19.44
2016-12-21T14:49:48.265Z,19.45
2016-12-21T14:50:58.265Z,19.44
2016-12-21T14:52:08.783Z,19.42
2016-12-21T14:53:18.764Z,19.42
2016-12-21T14:54:29.077Z,19.42
2016-12-21T14:55:39.061Z,19.48
2016-12-21T14:56:49.045Z,19.44
2016-12-21T14:57:59.007Z,19.38
2016-12-21T14:59:09.292Z,19.37
2016-12-21T15:00:19.561Z,19.38
2016-12-21T15:01:29.845Z,19.38
2016-12-21T15:02:39.838Z,19.38
2016-12-21T15:03:50.111Z,19.35
2016-12-21T15:05:00.399Z,19.38
2016-12-21T15:06:10.373Z,19.37